createdAt,value
2019-02-23T00:01:08.411Z,0
2019-02-23T00:02:17.845Z,0
2019-02-23T00:03:27.532Z,0
2019-02-23T00:04:37.233Z,0
2019-02-23T00:05:47.169Z,0
2019-02-23T00:06:57.148Z,0
2019-02-23T00:08:06.839Z,0
2019-02-23T00:09:16.277Z,0
2019-02-23T00:10:25.785Z,0
2019-02-23T00:11:35.223Z,0
2019-02-23T00:12:44.914Z,0
2019-02-23T00:13:54.602Z,0
2019-02-23T00:15:04.293Z,0
2019-02-23T00:16:14.002Z,0
2019-02-23T00:17:23.781Z,0
2019-02-23T00:18:33.482Z,0
2019-02-23T00:19:43.168Z,0
2019-02-23T00:20:52.611Z,0
2019-02-23T00:22:02.580Z,0
2019-02-23T00:23:12.290Z,0
2019-02-23T00:24:21.719Z,0
2019-02-23T00:25:31.419Z,0
2019-02-23T00:26:41.114Z,0
2019-02-23T00:27:51.058Z,0
2019-02-23T00:29:00.999Z,0
2019-02-23T00:30:10.450Z,0
2019-02-23T00:31:19.942Z,0
2019-02-23T00:32:29.204Z,0
2019-02-23T00:33:39.142Z,0
2019-02-23T00:34:48.827Z,0
2019-02-23T00:35:58.764Z,0
2019-02-23T00:37:08.457Z,0
2019-02-23T00:38:18.142Z,0
2019-02-23T00:39:27.587Z,0
2019-02-23T00:40:37.269Z,0
2019-02-23T00:41:46.961Z,0
2019-02-23T00:42:56.409Z,0
2019-02-23T00:44:06.352Z,0
2019-02-23T00:45:15.788Z,0
2019-02-23T00:46:25.743Z,0
2019-02-23T00:47:35.443Z,0
2019-02-23T00:48:45.171Z,0
2019-02-23T00:49:54.628Z,0
2019-02-23T00:51:04.315Z,0
2019-02-23T00:52:14.260Z,0
2019-02-23T00:53:24.207Z,0
2019-02-23T00:54:33.909Z,0
2019-02-23T00:55:43.839Z,0
2019-02-23T00:56:53.535Z,0
2019-02-23T00:58:02.988Z,0
2019-02-23T00:59:12.688Z,0
2019-02-23T01:00:22.702Z,0
2019-02-23T01:01:32.648Z,0
2019-02-23T01:02:42.413Z,0
2019-02-23T01:03:52.349Z,0
2019-02-23T01:05:02.052Z,0
2019-02-23T01:06:11.740Z,0
2019-02-23T01:07:21.271Z,0
2019-02-23T01:08:31.206Z,0
2019-02-23T01:09:41.156Z,0
2019-02-23T01:11:00.166Z,0
2019-02-23T01:12:09.609Z,0
2019-02-23T01:13:19.294Z,0
2019-02-23T01:14:28.754Z,0
2019-02-23T01:15:38.197Z,0
2019-02-23T01:16:47.137Z,0
2019-02-23T01:17:56.828Z,0
2019-02-23T01:19:06.274Z,0
2019-02-23T01:20:15.735Z,0
2019-02-23T01:21:25.722Z,0
2019-02-23T01:22:35.171Z,0
2019-02-23T01:23:44.927Z,0
2019-02-23T01:24:54.812Z,0
2019-02-23T01:26:04.249Z,0
2019-02-23T01:27:14.198Z,0
2019-02-23T01:28:24.146Z,0
2019-02-23T01:29:34.079Z,0
2019-02-23T01:30:44.021Z,0
2019-02-23T01:31:53.467Z,0
2019-02-23T01:33:03.410Z,0
2019-02-23T01:34:12.844Z,0
2019-02-23T01:35:22.793Z,0
2019-02-23T01:36:32.514Z,0
2019-02-23T01:37:42.209Z,0
2019-02-23T01:38:52.150Z,0
2019-02-23T01:40:01.837Z,0
2019-02-23T01:41:11.777Z,0
2019-02-23T01:42:21.714Z,0
2019-02-23T01:43:31.402Z,0
2019-02-23T01:44:41.364Z,0
2019-02-23T01:45:52.230Z,0
2019-02-23T01:47:02.174Z,0
2019-02-23T01:48:11.377Z,0
2019-02-23T01:49:20.823Z,0
2019-02-23T01:50:30.770Z,0
2019-02-23T01:51:40.469Z,0
2019-02-23T01:52:50.404Z,0
2019-02-23T01:53:59.844Z,0
2019-02-23T01:55:09.601Z,0
2019-02-23T01:56:19.295Z,0
2019-02-23T01:57:28.737Z,0
2019-02-23T01:58:38.189Z,0
2019-02-23T01:59:47.622Z,0
2019-02-23T02:00:57.313Z,0
2019-02-23T02:02:07.263Z,0
2019-02-23T02:03:16.950Z,0
2019-02-23T02:04:26.648Z,0
2019-02-23T02:05:36.357Z,0
2019-02-23T02:06:46.292Z,0
2019-02-23T02:07:55.981Z,0
2019-02-23T02:09:04.929Z,0
2019-02-23T02:10:14.679Z,0
2019-02-23T02:11:24.380Z,0
2019-02-23T02:12:34.091Z,0
2019-02-23T02:13:44.035Z,0
2019-02-23T02:16:54.915Z,0
2019-02-23T02:18:04.612Z,0
2019-02-23T02:19:14.310Z,0
2019-02-23T02:20:24.244Z,0
2019-02-23T02:21:34.184Z,0
2019-02-23T02:22:43.618Z,0
2019-02-23T02:23:53.305Z,0
2019-02-23T02:25:02.785Z,0
2019-02-23T02:26:12.227Z,0
2019-02-23T02:27:21.904Z,0
2019-02-23T02:28:31.611Z,0
2019-02-23T02:29:40.800Z,0
2019-02-23T02:30:50.743Z,0
2019-02-23T02:32:00.201Z,0
2019-02-23T02:33:09.902Z,0
2019-02-23T02:34:19.608Z,0
2019-02-23T02:35:29.551Z,0
2019-02-23T02:36:39.250Z,0
2019-02-23T02:37:48.991Z,0
2019-02-23T02:38:58.946Z,0
2019-02-23T02:40:08.638Z,0
2019-02-23T02:41:18.341Z,0
2019-02-23T02:42:28.047Z,0
2019-02-23T02:43:37.538Z,0
2019-02-23T02:44:47.522Z,0
2019-02-23T02:45:56.961Z,0
2019-02-23T02:47:06.934Z,0
2019-02-23T02:48:16.874Z,0
2019-02-23T02:49:26.572Z,0
2019-02-23T02:50:36.259Z,0
2019-02-23T02:51:46.201Z,0
2019-02-23T02:52:56.144Z,0
2019-02-23T02:54:05.833Z,0
2019-02-23T02:55:15.966Z,0
2019-02-23T02:56:25.654Z,0
2019-02-23T02:57:35.351Z,0
2019-02-23T02:58:45.294Z,0
2019-02-23T02:59:55.245Z,0
2019-02-23T03:01:04.946Z,0
2019-02-23T03:02:14.887Z,0
2019-02-23T03:03:24.841Z,0
2019-02-23T03:04:34.295Z,0
2019-02-23T03:05:44.305Z,0
2019-02-23T03:06:53.822Z,0
2019-02-23T03:08:03.526Z,0
2019-02-23T03:09:13.218Z,0
2019-02-23T03:10:22.668Z,0
2019-02-23T03:11:32.355Z,0
2019-02-23T03:12:42.046Z,0
2019-02-23T03:13:51.488Z,0
2019-02-23T03:15:01.191Z,0
2019-02-23T03:16:10.651Z,0
2019-02-23T03:17:20.332Z,0
2019-02-23T03:18:30.027Z,0
2019-02-23T03:19:39.966Z,0
2019-02-23T03:20:49.698Z,0
2019-02-23T03:21:59.139Z,0
2019-02-23T03:23:08.825Z,0
2019-02-23T03:24:18.532Z,0
2019-02-23T03:25:27.974Z,0
2019-02-23T03:26:37.660Z,0
2019-02-23T03:27:47.363Z,0
2019-02-23T03:28:56.807Z,0
2019-02-23T03:30:06.759Z,0
2019-02-23T03:31:16.262Z,0
2019-02-23T03:32:26.001Z,0
2019-02-23T03:33:36.185Z,0
2019-02-23T03:34:46.169Z,0
2019-02-23T03:35:56.107Z,0
2019-02-23T03:37:05.804Z,0
2019-02-23T03:38:15.508Z,0
2019-02-23T03:39:25.227Z,0
2019-02-23T03:40:34.918Z,0
2019-02-23T03:41:44.609Z,0
2019-02-23T03:42:54.551Z,0
2019-02-23T03:44:04.559Z,0
2019-02-23T03:45:14.388Z,0
2019-02-23T03:46:24.091Z,0
2019-02-23T03:47:33.774Z,0
2019-02-23T03:48:43.216Z,0
2019-02-23T03:49:52.664Z,0
2019-02-23T03:51:02.358Z,0
2019-02-23T03:52:12.090Z,0
2019-02-23T03:53:21.780Z,0
2019-02-23T03:54:31.743Z,0
2019-02-23T03:55:41.581Z,0
2019-02-23T03:56:51.295Z,0
2019-02-23T03:58:01.004Z,0
2019-02-23T03:59:10.696Z,0
2019-02-23T04:00:20.636Z,0
2019-02-23T04:01:30.587Z,0
2019-02-23T04:02:40.536Z,0
2019-02-23T04:03:50.241Z,0
2019-02-23T04:04:59.680Z,0
2019-02-23T04:06:09.385Z,0
2019-02-23T04:07:19.353Z,0
2019-02-23T04:08:28.553Z,0
2019-02-23T04:09:37.989Z,0
2019-02-23T04:10:47.693Z,0
2019-02-23T04:11:57.631Z,0
2019-02-23T04:13:07.366Z,0
2019-02-23T04:14:17.141Z,0
2019-02-23T04:15:26.580Z,0
2019-02-23T04:16:36.526Z,0
2019-02-23T04:17:46.485Z,0
2019-02-23T04:18:56.257Z,0
2019-02-23T04:20:06.250Z,0
2019-02-23T04:21:15.974Z,0
2019-02-23T04:22:25.690Z,0
2019-02-23T04:23:35.627Z,0
2019-02-23T04:24:45.447Z,0
2019-02-23T04:25:55.137Z,0
2019-02-23T04:27:05.087Z,0
2019-02-23T04:28:15.033Z,0
2019-02-23T04:29:25.002Z,0
2019-02-23T04:30:34.705Z,0
2019-02-23T04:31:44.142Z,0
2019-02-23T04:32:53.829Z,0
2019-02-23T04:34:03.781Z,0
2019-02-23T04:35:13.523Z,0
2019-02-23T04:36:23.221Z,0
2019-02-23T04:37:32.903Z,0
2019-02-23T04:38:42.608Z,0
2019-02-23T04:39:52.547Z,0
2019-02-23T04:41:02.234Z,0
2019-02-23T04:42:12.176Z,0
2019-02-23T04:43:21.610Z,0
2019-02-23T04:44:31.058Z,0
2019-02-23T04:45:40.286Z,0
2019-02-23T04:46:50.264Z,0
2019-02-23T04:47:59.960Z,0
2019-02-23T04:49:09.645Z,0
2019-02-23T04:50:19.100Z,0
2019-02-23T04:51:28.816Z,0
2019-02-23T04:52:38.261Z,0
2019-02-23T04:53:48.217Z,0
2019-02-23T04:54:58.242Z,0
2019-02-23T04:56:07.969Z,0
2019-02-23T04:57:17.412Z,0
2019-02-23T04:58:27.393Z,0
2019-02-23T04:59:37.358Z,0
2019-02-23T05:00:49.544Z,0
2019-02-23T05:01:59.566Z,0
2019-02-23T05:03:09.531Z,0
2019-02-23T05:04:19.238Z,0
2019-02-23T05:05:28.942Z,0
2019-02-23T05:06:38.387Z,0
2019-02-23T05:07:48.097Z,0
2019-02-23T05:08:57.801Z,0
2019-02-23T05:10:07.399Z,0
2019-02-23T05:11:17.100Z,0
2019-02-23T05:12:26.831Z,0
2019-02-23T05:13:36.780Z,0
2019-02-23T05:14:46.745Z,0
2019-02-23T05:15:56.193Z,0
2019-02-23T05:17:06.126Z,0
2019-02-23T05:18:15.807Z,0
2019-02-23T05:19:25.527Z,0
2019-02-23T05:20:35.003Z,0
2019-02-23T05:21:44.444Z,0
2019-02-23T05:22:53.883Z,0
2019-02-23T05:24:03.849Z,0
2019-02-23T05:25:13.542Z,0
2019-02-23T05:26:23.488Z,0
2019-02-23T05:27:33.457Z,0
2019-02-23T05:28:42.897Z,0
2019-02-23T05:29:52.332Z,0
2019-02-23T05:31:02.287Z,0
2019-02-23T05:32:12.242Z,0
2019-02-23T05:33:21.940Z,0
2019-02-23T05:34:31.877Z,0
2019-02-23T05:35:41.324Z,0
2019-02-23T05:36:51.030Z,0
2019-02-23T05:38:00.761Z,0
2019-02-23T05:39:10.471Z,0
2019-02-23T05:40:20.437Z,0
2019-02-23T05:41:30.393Z,0
2019-02-23T05:42:40.087Z,0
2019-02-23T05:43:50.040Z,0
2019-02-23T05:44:59.499Z,0
2019-02-23T05:46:09.181Z,0
2019-02-23T05:47:19.044Z,0
2019-02-23T05:48:29.008Z,0
2019-02-23T05:49:41.728Z,0
2019-02-23T05:50:51.427Z,0
2019-02-23T05:52:01.133Z,0
2019-02-23T05:53:10.843Z,0
2019-02-23T05:54:20.035Z,0
2019-02-23T05:55:29.480Z,0
2019-02-23T05:56:39.419Z,0
2019-02-23T05:57:49.103Z,0
2019-02-23T05:58:58.803Z,0
2019-02-23T06:00:08.501Z,0
2019-02-23T06:01:18.194Z,0
2019-02-23T06:02:27.905Z,0
2019-02-23T06:03:37.844Z,0
2019-02-23T06:04:47.543Z,0
2019-02-23T06:05:57.504Z,0
2019-02-23T06:07:07.197Z,0
2019-02-23T06:08:16.919Z,0
2019-02-23T06:09:26.606Z,0
2019-02-23T06:10:36.311Z,0
2019-02-23T06:11:46.259Z,0
2019-02-23T06:12:56.002Z,0
2019-02-23T06:14:05.951Z,0
2019-02-23T06:15:15.640Z,0
2019-02-23T06:16:25.580Z,0
2019-02-23T06:17:35.543Z,0
2019-02-23T06:18:44.995Z,0
2019-02-23T06:19:54.930Z,0
2019-02-23T06:21:04.423Z,0
2019-02-23T06:22:14.394Z,0
2019-02-23T06:23:24.341Z,0
2019-02-23T06:24:34.290Z,0
2019-02-23T06:25:44.033Z,0
2019-02-23T06:26:53.974Z,0
2019-02-23T06:28:03.951Z,0
2019-02-23T06:29:13.656Z,0
2019-02-23T06:30:25.382Z,0
2019-02-23T06:31:35.104Z,0
2019-02-23T06:32:44.288Z,0
2019-02-23T06:33:54.009Z,0
2019-02-23T06:35:03.201Z,0
2019-02-23T06:36:12.907Z,0
2019-02-23T06:37:22.342Z,0
2019-02-23T06:38:32.034Z,0
2019-02-23T06:39:41.718Z,0
2019-02-23T06:40:51.415Z,0
2019-02-23T06:42:00.852Z,0
2019-02-23T06:43:10.299Z,0
2019-02-23T06:44:19.996Z,0
2019-02-23T06:45:29.440Z,0
2019-02-23T06:46:39.379Z,0
2019-02-23T06:47:48.578Z,0
2019-02-23T06:48:58.008Z,0
2019-02-23T06:50:07.571Z,0
2019-02-23T06:51:17.534Z,0
2019-02-23T06:52:27.465Z,0
2019-02-23T06:53:36.911Z,0
2019-02-23T06:54:46.358Z,0
2019-02-23T06:55:55.837Z,0
2019-02-23T06:57:05.792Z,0
2019-02-23T06:58:15.239Z,0
2019-02-23T06:59:24.683Z,0
2019-02-23T07:00:34.130Z,0
2019-02-23T07:01:44.078Z,0
2019-02-23T07:02:53.780Z,0
2019-02-23T07:04:03.491Z,0
2019-02-23T07:05:13.263Z,0
2019-02-23T07:06:22.960Z,0
2019-02-23T07:07:31.918Z,0
2019-02-23T07:08:41.881Z,0
2019-02-23T07:09:51.829Z,0
2019-02-23T07:11:01.787Z,0
2019-02-23T07:12:11.219Z,0
2019-02-23T07:13:21.157Z,0
2019-02-23T07:14:31.098Z,0
2019-02-23T07:15:40.534Z,0
2019-02-23T07:16:50.231Z,0
2019-02-23T07:17:59.924Z,0
2019-02-23T07:19:09.362Z,0
2019-02-23T07:20:19.046Z,0
2019-02-23T07:21:29.004Z,0
2019-02-23T07:22:40.705Z,0
2019-02-23T07:23:50.400Z,0
2019-02-23T07:25:00.368Z,0
2019-02-23T07:26:10.056Z,0
2019-02-23T07:27:19.737Z,0
2019-02-23T07:28:29.421Z,0
2019-02-23T07:29:39.106Z,0
2019-02-23T07:30:48.801Z,0
2019-02-23T07:31:58.237Z,0
2019-02-23T07:33:08.179Z,0
2019-02-23T07:34:17.886Z,0
2019-02-23T07:35:27.822Z,0
2019-02-23T07:36:37.781Z,0
2019-02-23T07:37:47.728Z,0
2019-02-23T07:38:57.414Z,0
2019-02-23T07:40:06.846Z,0
2019-02-23T07:41:16.834Z,0
2019-02-23T07:42:26.770Z,0
2019-02-23T07:43:36.456Z,0
2019-02-23T07:44:46.154Z,0
2019-02-23T07:45:55.846Z,0
2019-02-23T07:47:05.285Z,0
2019-02-23T07:48:14.977Z,0
2019-02-23T07:49:24.929Z,0
2019-02-23T07:50:33.871Z,0
2019-02-23T07:51:43.306Z,0
2019-02-23T07:52:52.493Z,0
2019-02-23T07:54:01.689Z,0
2019-02-23T07:55:11.620Z,0
2019-02-23T07:56:21.317Z,0
2019-02-23T07:57:31.254Z,0
2019-02-23T07:58:40.942Z,0
2019-02-23T07:59:50.698Z,0
2019-02-23T08:01:00.385Z,0
2019-02-23T08:02:10.096Z,0
2019-02-23T08:03:19.774Z,0
2019-02-23T08:04:29.464Z,0
2019-02-23T08:05:39.161Z,0
2019-02-23T08:06:48.847Z,0
2019-02-23T08:07:58.285Z,0
2019-02-23T08:09:07.968Z,0
2019-02-23T08:10:17.165Z,0
2019-02-23T08:11:26.886Z,0
2019-02-23T08:12:36.315Z,0
2019-02-23T08:13:47.961Z,0
2019-02-23T08:14:57.891Z,0
2019-02-23T08:16:07.821Z,0
2019-02-23T08:17:17.517Z,0
2019-02-23T08:18:27.212Z,0
2019-02-23T08:19:36.416Z,0
2019-02-23T08:20:46.106Z,0
2019-02-23T08:21:55.539Z,0
2019-02-23T08:23:04.979Z,0
2019-02-23T08:24:14.427Z,0
2019-02-23T08:25:24.121Z,0
2019-02-23T08:26:33.809Z,0
2019-02-23T08:27:43.504Z,0
2019-02-23T08:28:53.444Z,0
2019-02-23T08:30:02.704Z,0
2019-02-23T08:31:13.341Z,0
2019-02-23T08:32:23.230Z,0
2019-02-23T08:33:32.931Z,0
2019-02-23T08:34:42.369Z,0
2019-02-23T08:35:52.308Z,0
2019-02-23T08:37:02.003Z,0
2019-02-23T08:38:11.685Z,0
2019-02-23T08:39:21.381Z,0
2019-02-23T08:40:30.814Z,0
2019-02-23T08:41:40.003Z,0
2019-02-23T08:42:49.693Z,0
2019-02-23T08:43:59.391Z,0
2019-02-23T08:45:08.831Z,0
2019-02-23T08:46:18.519Z,0
2019-02-23T08:47:28.220Z,0
2019-02-23T08:48:40.382Z,0
2019-02-23T08:49:50.072Z,0
2019-02-23T08:50:59.755Z,0
2019-02-23T08:52:09.450Z,0
2019-02-23T08:53:19.393Z,0
2019-02-23T08:54:29.332Z,0
2019-02-23T08:55:38.581Z,0
2019-02-23T08:56:48.027Z,0
2019-02-23T08:57:57.981Z,0
2019-02-23T08:59:07.721Z,180
2019-02-23T09:00:17.167Z,180
2019-02-23T09:01:26.848Z,185
2019-02-23T09:02:36.080Z,185
2019-02-23T09:03:46.072Z,185
2019-02-23T09:04:56.013Z,185
2019-02-23T09:06:05.707Z,180
2019-02-23T09:07:14.898Z,180
2019-02-23T09:08:24.580Z,185
2019-02-23T09:09:34.007Z,185
2019-02-23T09:10:43.682Z,180
2019-02-23T09:11:53.373Z,180
2019-02-23T09:13:03.310Z,180
2019-02-23T09:14:12.769Z,175
2019-02-23T09:15:24.767Z,175
2019-02-23T09:16:34.548Z,60
2019-02-23T09:17:44.482Z,60
2019-02-23T09:18:53.675Z,60
2019-02-23T09:20:03.190Z,60
2019-02-23T09:21:12.625Z,60
2019-02-23T09:22:22.058Z,60
2019-02-23T09:23:31.993Z,60
2019-02-23T09:24:41.672Z,60
2019-02-23T09:25:50.867Z,55
2019-02-23T09:27:00.818Z,55
2019-02-23T09:28:10.521Z,55
2019-02-23T09:29:20.212Z,55
2019-02-23T09:30:29.900Z,55
2019-02-23T09:31:39.358Z,55
2019-02-23T09:32:48.810Z,50
2019-02-23T09:33:58.761Z,50
2019-02-23T09:35:08.194Z,55
2019-02-23T09:36:17.628Z,55
2019-02-23T09:37:27.337Z,55
2019-02-23T09:38:36.785Z,55
2019-02-23T09:39:46.483Z,55
2019-02-23T09:40:55.953Z,55
2019-02-23T09:42:16.450Z,55
2019-02-23T09:43:26.972Z,55
2019-02-23T09:44:36.651Z,60
2019-02-23T09:45:46.589Z,60
2019-02-23T09:46:56.306Z,60
2019-02-23T09:48:05.999Z,60
2019-02-23T09:49:15.199Z,60
2019-02-23T09:50:25.139Z,60
2019-02-23T09:51:34.818Z,60
2019-02-23T09:52:44.277Z,60
2019-02-23T09:53:54.226Z,60
2019-02-23T09:55:03.664Z,60
2019-02-23T09:56:12.866Z,60
2019-02-23T09:57:22.309Z,60
2019-02-23T09:58:33.803Z,60
2019-02-23T09:59:45.045Z,65
2019-02-23T10:00:54.744Z,65
2019-02-23T10:02:04.436Z,65
2019-02-23T10:03:13.879Z,60
2019-02-23T10:04:23.818Z,65
2019-02-23T10:05:33.011Z,65
2019-02-23T10:06:43.025Z,65
2019-02-23T10:07:52.954Z,65
2019-02-23T10:09:02.899Z,65
2019-02-23T10:10:12.595Z,65
2019-02-23T10:11:21.781Z,65
2019-02-23T10:12:31.483Z,65
2019-02-23T10:13:41.177Z,65
2019-02-23T10:14:51.137Z,65
2019-02-23T10:16:00.588Z,65
2019-02-23T10:17:11.723Z,65
2019-02-23T10:18:21.426Z,65
2019-02-23T10:19:31.116Z,65
2019-02-23T10:20:40.301Z,60
2019-02-23T10:21:49.496Z,60
2019-02-23T10:22:58.938Z,60
2019-02-23T10:24:08.631Z,60
2019-02-23T10:25:18.284Z,60
2019-02-23T10:26:28.224Z,60
2019-02-23T10:27:38.152Z,60
2019-02-23T10:28:47.843Z,60
2019-02-23T10:29:56.530Z,60
2019-02-23T10:31:06.470Z,60
2019-02-23T10:32:16.173Z,60
2019-02-23T10:33:25.874Z,60
2019-02-23T10:34:35.568Z,60
2019-02-23T10:35:45.023Z,60
2019-02-23T10:36:54.459Z,60
2019-02-23T10:38:03.915Z,60
2019-02-23T10:39:13.356Z,60
2019-02-23T10:40:22.808Z,60
2019-02-23T10:41:32.514Z,60
2019-02-23T10:42:41.959Z,60
2019-02-23T10:43:51.413Z,60
2019-02-23T10:45:01.361Z,60
2019-02-23T10:46:12.158Z,60
2019-02-23T10:47:21.973Z,60
2019-02-23T10:48:31.934Z,60
2019-02-23T10:49:41.638Z,60
2019-02-23T10:50:51.333Z,60
2019-02-23T10:52:01.027Z,60
2019-02-23T10:53:10.494Z,60
2019-02-23T10:54:19.924Z,60
2019-02-23T10:55:29.875Z,60
2019-02-23T10:56:39.562Z,60
2019-02-23T10:57:49.258Z,60
2019-02-23T10:58:58.942Z,60
2019-02-23T11:00:08.624Z,60
2019-02-23T11:01:18.063Z,60
2019-02-23T11:02:28.063Z,60
2019-02-23T11:03:38.009Z,60
2019-02-23T11:04:47.511Z,60
2019-02-23T11:05:57.206Z,60
2019-02-23T11:07:07.147Z,60
2019-02-23T11:08:17.080Z,60
2019-02-23T11:09:26.766Z,60
2019-02-23T11:10:36.205Z,60
2019-02-23T11:11:48.347Z,60
2019-02-23T11:12:57.933Z,60
2019-02-23T11:14:07.117Z,60
2019-02-23T11:15:16.818Z,65
2019-02-23T11:16:26.254Z,65
2019-02-23T11:17:35.939Z,65
2019-02-23T11:18:45.626Z,65
2019-02-23T11:19:55.315Z,65
2019-02-23T11:21:05.263Z,65
2019-02-23T11:22:15.198Z,65
2019-02-23T11:23:24.654Z,65
2019-02-23T11:24:34.100Z,65
2019-02-23T11:25:43.600Z,65
2019-02-23T11:26:53.290Z,65
2019-02-23T11:28:03.222Z,65
2019-02-23T11:29:12.458Z,65
2019-02-23T11:30:22.155Z,65
2019-02-23T11:31:32.091Z,65
2019-02-23T11:32:42.024Z,65
2019-02-23T11:33:51.724Z,65
2019-02-23T11:35:01.738Z,65
2019-02-23T11:36:11.431Z,65
2019-02-23T11:37:21.145Z,65
2019-02-23T11:38:30.828Z,65
2019-02-23T11:39:40.766Z,65
2019-02-23T11:40:50.209Z,65
2019-02-23T11:41:59.648Z,65
2019-02-23T11:43:08.842Z,65
2019-02-23T11:44:18.778Z,65
2019-02-23T11:45:30.893Z,60
2019-02-23T11:46:59.116Z,60
2019-02-23T11:48:08.652Z,60
2019-02-23T11:49:18.360Z,60
2019-02-23T11:50:28.052Z,60
2019-02-23T11:51:37.990Z,60
2019-02-23T11:52:48.795Z,60
2019-02-23T11:54:04.221Z,60
2019-02-23T11:55:13.678Z,60
2019-02-23T11:56:23.633Z,60
2019-02-23T11:57:33.639Z,60
2019-02-23T11:58:43.344Z,60
2019-02-23T11:59:52.784Z,60
2019-02-23T12:01:02.218Z,60
2019-02-23T12:02:12.169Z,60
2019-02-23T12:03:21.869Z,60
2019-02-23T12:04:31.615Z,60
2019-02-23T12:05:41.318Z,60
2019-02-23T12:06:51.003Z,60
2019-02-23T12:08:00.940Z,60
2019-02-23T12:09:10.911Z,60
2019-02-23T12:10:20.852Z,60
2019-02-23T12:11:30.805Z,60
2019-02-23T12:12:40.495Z,60
2019-02-23T12:13:50.437Z,60
2019-02-23T12:15:00.489Z,60
2019-02-23T12:16:09.940Z,60
2019-02-23T12:17:19.889Z,60
2019-02-23T12:18:29.634Z,60
2019-02-23T12:19:39.585Z,60
2019-02-23T12:20:49.271Z,60
2019-02-23T12:21:58.961Z,60
2019-02-23T12:23:07.951Z,60
2019-02-23T12:24:17.397Z,60
2019-02-23T12:25:27.351Z,60
2019-02-23T12:26:36.535Z,60
2019-02-23T12:27:46.473Z,60
2019-02-23T12:28:55.923Z,60
2019-02-23T12:30:05.107Z,60
2019-02-23T12:31:14.791Z,60
2019-02-23T12:32:24.225Z,65
2019-02-23T12:33:33.918Z,65
2019-02-23T12:34:43.607Z,65
2019-02-23T12:35:53.293Z,65
2019-02-23T12:37:04.806Z,65
2019-02-23T12:38:14.553Z,65
2019-02-23T12:39:24.248Z,65
2019-02-23T12:40:33.929Z,65
2019-02-23T12:41:43.373Z,65
2019-02-23T12:42:52.818Z,70
2019-02-23T12:44:02.512Z,70
2019-02-23T12:45:11.962Z,70
2019-02-23T12:46:21.407Z,70
2019-02-23T12:47:30.852Z,70
2019-02-23T12:48:40.312Z,70
2019-02-23T12:49:49.540Z,70
2019-02-23T12:50:58.992Z,70
2019-02-23T12:52:08.439Z,70
2019-02-23T12:53:18.141Z,70
2019-02-23T12:54:27.864Z,70
2019-02-23T12:55:37.848Z,65
2019-02-23T12:56:47.541Z,65
2019-02-23T12:57:57.247Z,65
2019-02-23T12:59:06.942Z,65
2019-02-23T13:00:16.877Z,60
2019-02-23T13:01:26.644Z,65
2019-02-23T13:02:36.334Z,65
2019-02-23T13:03:46.013Z,65
2019-02-23T13:04:55.702Z,65
2019-02-23T13:06:05.145Z,65
2019-02-23T13:07:15.087Z,65
2019-02-23T13:08:25.022Z,65
2019-02-23T13:09:34.467Z,65
2019-02-23T13:10:43.650Z,65
2019-02-23T13:11:53.330Z,65
2019-02-23T13:13:02.850Z,65
2019-02-23T13:14:12.304Z,65
2019-02-23T13:15:22.006Z,65
2019-02-23T13:16:31.946Z,65
2019-02-23T13:17:41.389Z,65
2019-02-23T13:18:51.075Z,65
2019-02-23T13:20:01.038Z,65
2019-02-23T13:21:10.734Z,65
2019-02-23T13:22:20.675Z,65
2019-02-23T13:23:29.878Z,65
2019-02-23T13:24:39.565Z,65
2019-02-23T13:25:49.536Z,65
2019-02-23T13:26:59.231Z,65
2019-02-23T13:28:08.664Z,65
2019-02-23T13:29:18.358Z,65
2019-02-23T13:30:28.069Z,65
2019-02-23T13:31:37.749Z,65
2019-02-23T13:32:47.443Z,65
2019-02-23T13:33:57.145Z,65
2019-02-23T13:35:06.339Z,65
2019-02-23T13:36:16.285Z,65
2019-02-23T13:37:25.821Z,65
2019-02-23T13:38:35.783Z,65
2019-02-23T13:39:45.483Z,65
2019-02-23T13:40:55.196Z,65
2019-02-23T13:42:05.685Z,65
2019-02-23T13:43:15.509Z,65
2019-02-23T13:44:26.645Z,65
2019-02-23T13:45:36.080Z,65
2019-02-23T13:46:46.027Z,65
2019-02-23T13:47:55.969Z,65
2019-02-23T13:49:05.656Z,65
2019-02-23T13:50:15.617Z,65
2019-02-23T13:51:25.061Z,65
2019-02-23T13:52:34.505Z,65
2019-02-23T13:53:43.945Z,65
2019-02-23T13:54:53.649Z,65
2019-02-23T13:56:03.587Z,65
2019-02-23T13:57:13.286Z,65
2019-02-23T13:58:23.733Z,65
2019-02-23T13:59:33.421Z,65
2019-02-23T14:00:43.380Z,65
2019-02-23T14:01:52.824Z,65
2019-02-23T14:03:02.516Z,65
2019-02-23T14:04:11.965Z,65
2019-02-23T14:05:21.923Z,65
2019-02-23T14:06:31.623Z,65
2019-02-23T14:07:41.564Z,65
2019-02-23T14:08:51.252Z,65
2019-02-23T14:10:00.956Z,65
2019-02-23T14:11:10.640Z,65
2019-02-23T14:12:20.345Z,65
2019-02-23T14:13:30.034Z,65
2019-02-23T14:14:39.976Z,65
2019-02-23T14:15:49.915Z,65
2019-02-23T14:17:02.043Z,65
2019-02-23T14:18:12.787Z,65
2019-02-23T14:19:22.224Z,65
2019-02-23T14:20:32.164Z,65
2019-02-23T14:21:42.108Z,65
2019-02-23T14:22:51.552Z,65
2019-02-23T14:24:01.496Z,65
2019-02-23T14:25:11.191Z,65
2019-02-23T14:26:20.648Z,65
2019-02-23T14:27:30.084Z,65
2019-02-23T14:28:40.029Z,65
2019-02-23T14:29:49.469Z,65
2019-02-23T14:30:59.168Z,65
2019-02-23T14:32:08.859Z,65
2019-02-23T14:33:18.297Z,65
2019-02-23T14:34:27.819Z,65
2019-02-23T14:35:37.577Z,65
2019-02-23T14:36:46.773Z,70
2019-02-23T14:37:57.466Z,70
2019-02-23T14:39:07.467Z,70
2019-02-23T14:40:17.631Z,70
2019-02-23T14:41:27.722Z,70
2019-02-23T14:42:37.700Z,70
2019-02-23T14:43:47.432Z,70
2019-02-23T14:44:57.450Z,70
2019-02-23T14:46:06.961Z,70
2019-02-23T14:47:16.753Z,70
2019-02-23T14:48:26.809Z,70
2019-02-23T14:49:36.840Z,75
2019-02-23T14:50:45.855Z,75
2019-02-23T14:51:55.857Z,75
2019-02-23T14:53:05.682Z,75
2019-02-23T14:54:15.464Z,75
2019-02-23T14:55:25.456Z,70
2019-02-23T14:56:35.007Z,70
2019-02-23T14:57:43.977Z,70
2019-02-23T14:58:54.002Z,70
2019-02-23T15:00:03.469Z,65
2019-02-23T15:01:12.913Z,65
2019-02-23T15:02:22.616Z,65
2019-02-23T15:03:32.303Z,60
2019-02-23T15:04:41.486Z,60
2019-02-23T15:05:51.184Z,60
2019-02-23T15:07:01.132Z,60
2019-02-23T15:08:10.823Z,60
2019-02-23T15:09:22.100Z,55
2019-02-23T15:10:31.782Z,55
2019-02-23T15:11:41.486Z,55
2019-02-23T15:12:51.440Z,55
2019-02-23T15:14:01.131Z,55
2019-02-23T15:15:10.576Z,55
2019-02-23T15:16:26.961Z,50
2019-02-23T15:17:36.910Z,50
2019-02-23T15:18:46.613Z,50
2019-02-23T15:19:56.298Z,50
2019-02-23T15:21:05.979Z,50
2019-02-23T15:22:15.437Z,50
2019-02-23T15:23:24.889Z,50
2019-02-23T15:24:34.582Z,50
2019-02-23T15:25:43.522Z,50
2019-02-23T15:26:52.711Z,50
2019-02-23T15:28:04.007Z,50
2019-02-23T15:29:13.700Z,50
2019-02-23T15:30:23.399Z,50
2019-02-23T15:31:32.334Z,55
2019-02-23T15:32:42.033Z,55
2019-02-23T15:33:50.975Z,55
2019-02-23T15:35:00.425Z,55
2019-02-23T15:36:10.433Z,55
2019-02-23T15:37:19.881Z,55
2019-02-23T15:38:29.569Z,55
2019-02-23T15:39:39.681Z,55
2019-02-23T15:40:49.533Z,55
2019-02-23T15:41:59.325Z,50
2019-02-23T15:43:09.160Z,50
2019-02-23T15:44:21.505Z,50
2019-02-23T15:45:31.781Z,50
2019-02-23T15:46:41.866Z,50
2019-02-23T15:47:51.891Z,50
2019-02-23T15:49:01.644Z,50
2019-02-23T15:50:22.611Z,50
2019-02-23T15:51:32.493Z,50
2019-02-23T15:52:42.266Z,50
2019-02-23T15:53:52.132Z,50
2019-02-23T15:55:01.571Z,50
2019-02-23T15:56:10.504Z,50
2019-02-23T15:57:20.201Z,50
2019-02-23T15:58:30.136Z,50
2019-02-23T15:59:39.826Z,50
2019-02-23T16:00:49.514Z,45
2019-02-23T16:01:59.463Z,45
2019-02-23T16:03:08.655Z,45
2019-02-23T16:04:18.357Z,40
2019-02-23T16:05:28.046Z,40
2019-02-23T16:06:41.260Z,40
2019-02-23T16:07:50.959Z,40
2019-02-23T16:09:00.398Z,40
2019-02-23T16:10:10.368Z,40
2019-02-23T16:11:20.070Z,35
2019-02-23T16:12:29.760Z,35
2019-02-23T16:13:39.475Z,30
2019-02-23T16:14:49.021Z,30
2019-02-23T16:15:58.758Z,25
2019-02-23T16:17:08.447Z,25
2019-02-23T16:18:17.893Z,20
2019-02-23T16:19:27.604Z,20
2019-02-23T16:20:37.077Z,20
2019-02-23T16:21:46.527Z,20
2019-02-23T16:22:56.226Z,15
2019-02-23T16:24:05.671Z,15
2019-02-23T16:25:15.423Z,15
2019-02-23T16:26:25.361Z,15
2019-02-23T16:27:35.408Z,15
2019-02-23T16:28:45.114Z,15
2019-02-23T16:29:54.801Z,10
2019-02-23T16:31:04.504Z,10
2019-02-23T16:32:14.196Z,10
2019-02-23T16:33:23.655Z,10
2019-02-23T16:34:33.337Z,10
2019-02-23T16:35:42.791Z,10
2019-02-23T16:36:52.493Z,10
2019-02-23T16:38:02.242Z,5
2019-02-23T16:39:11.999Z,5
2019-02-23T16:40:21.735Z,5
2019-02-23T16:41:31.193Z,5
2019-02-23T16:42:41.141Z,5
2019-02-23T16:43:51.093Z,5
2019-02-23T16:45:00.788Z,5
2019-02-23T16:46:10.733Z,5
2019-02-23T16:47:20.179Z,5
2019-02-23T16:48:29.120Z,5
2019-02-23T16:49:38.820Z,0
2019-02-23T16:50:48.758Z,0
2019-02-23T16:51:58.706Z,0
2019-02-23T16:53:08.185Z,0
2019-02-23T16:54:17.950Z,0
2019-02-23T16:55:27.902Z,0
2019-02-23T16:56:37.686Z,0
2019-02-23T16:57:47.494Z,0